sensor_id;sensor_type;location;lat;lon;timestamp;temperature;humidity
22145;DHT22;11238;48.730;11.566;2023-08-20T00:00:56;23.30;99.90
22145;DHT22;11238;48.730;11.566;2023-08-20T00:03:22;23.20;99.90
22145;DHT22;11238;48.730;11.566;2023-08-20T00:05:52;23.20;99.90
22145;DHT22;11238;48.730;11.566;2023-08-20T00:08:18;23.20;99.90
22145;DHT22;11238;48.730;11.566;2023-08-20T00:10:44;23.10;99.90
22145;DHT22;11238;48.730;11.566;2023-08-20T00:13:10;23.10;99.90
22145;DHT22;11238;48.730;11.566;2023-08-20T00:15:36;23.10;99.90
22145;DHT22;11238;48.730;11.566;2023-08-20T00:18:02;23.10;99.90
22145;DHT22;11238;48.730;11.566;2023-08-20T00:20:49;23.10;99.90
22145;DHT22;11238;48.730;11.566;2023-08-20T00:23:16;22.90;99.90
22145;DHT22;11238;48.730;11.566;2023-08-20T00:25:43;22.90;99.90
22145;DHT22;11238;48.730;11.566;2023-08-20T00:28:09;22.90;99.90
22145;DHT22;11238;48.730;11.566;2023-08-20T00:30:35;22.70;99.90
22145;DHT22;11238;48.730;11.566;2023-08-20T00:33:01;22.60;99.90
22145;DHT22;11238;48.730;11.566;2023-08-20T00:35:27;22.70;99.90
22145;DHT22;11238;48.730;11.566;2023-08-20T00:37:53;22.80;99.90
22145;DHT22;11238;48.730;11.566;2023-08-20T00:40:19;22.70;99.90
22145;DHT22;11238;48.730;11.566;2023-08-20T00:42:45;22.70;99.90
22145;DHT22;11238;48.730;11.566;2023-08-20T00:45:11;22.70;99.90
22145;DHT22;11238;48.730;11.566;2023-08-20T00:47:38;22.70;99.90
22145;DHT22;11238;48.730;11.566;2023-08-20T00:50:06;22.60;99.90
22145;DHT22;11238;48.730;11.566;2023-08-20T00:52:33;22.60;99.90
22145;DHT22;11238;48.730;11.566;2023-08-20T00:55:00;22.60;99.90
22145;DHT22;11238;48.730;11.566;2023-08-20T00:57:27;22.50;99.90
22145;DHT22;11238;48.730;11.566;2023-08-20T00:59:54;22.50;99.90
22145;DHT22;11238;48.730;11.566;2023-08-20T01:02:20;22.40;99.90
22145;DHT22;11238;48.730;11.566;2023-08-20T01:04:48;22.50;99.90
22145;DHT22;11238;48.730;11.566;2023-08-20T01:07:24;22.50;99.90
22145;DHT22;11238;48.730;11.566;2023-08-20T01:10:39;22.40;99.90
22145;DHT22;11238;48.730;11.566;2023-08-20T01:13:07;22.40;99.90
22145;DHT22;11238;48.730;11.566;2023-08-20T01:15:33;22.30;99.90
22145;DHT22;11238;48.730;11.566;2023-08-20T01:17:59;22.30;99.90
22145;DHT22;11238;48.730;11.566;2023-08-20T01:20:30;22.30;99.90
22145;DHT22;11238;48.730;11.566;2023-08-20T01:28:40;22.20;99.90
22145;DHT22;11238;48.730;11.566;2023-08-20T01:31:10;22.20;99.90
22145;DHT22;11238;48.730;11.566;2023-08-20T01:33:36;22.20;99.90
22145;DHT22;11238;48.730;11.566;2023-08-20T01:36:02;22.10;99.90
22145;DHT22;11238;48.730;11.566;2023-08-20T01:38:36;22.10;99.90
22145;DHT22;11238;48.730;11.566;2023-08-20T01:41:03;22.10;99.90
22145;DHT22;11238;48.730;11.566;2023-08-20T01:43:50;22.10;99.90
22145;DHT22;11238;48.730;11.566;2023-08-20T01:46:16;22.10;99.90
22145;DHT22;11238;48.730;11.566;2023-08-20T01:48:42;22.10;99.90
22145;DHT22;11238;48.730;11.566;2023-08-20T01:51:08;22.00;99.90
22145;DHT22;11238;48.730;11.566;2023-08-20T01:53:35;22.10;99.90
22145;DHT22;11238;48.730;11.566;2023-08-20T01:56:01;22.00;99.90
22145;DHT22;11238;48.730;11.566;2023-08-20T01:58:27;22.00;99.90
22145;DHT22;11238;48.730;11.566;2023-08-20T02:00:53;22.00;99.90
22145;DHT22;11238;48.730;11.566;2023-08-20T02:03:18;22.00;99.90
22145;DHT22;11238;48.730;11.566;2023-08-20T02:05:44;22.00;99.90
22145;DHT22;11238;48.730;11.566;2023-08-20T02:08:10;21.90;99.90
22145;DHT22;11238;48.730;11.566;2023-08-20T02:10:36;21.90;99.90
22145;DHT22;11238;48.730;11.566;2023-08-20T02:13:04;21.90;99.90
22145;DHT22;11238;48.730;11.566;2023-08-20T02:15:30;21.90;99.90
22145;DHT22;11238;48.730;11.566;2023-08-20T02:17:56;21.90;99.90
22145;DHT22;11238;48.730;11.566;2023-08-20T02:20:22;21.90;99.90
22145;DHT22;11238;48.730;11.566;2023-08-20T02:22:48;21.80;99.90
22145;DHT22;11238;48.730;11.566;2023-08-20T02:25:15;21.80;99.90
22145;DHT22;11238;48.730;11.566;2023-08-20T02:27:40;21.80;99.90
22145;DHT22;11238;48.730;11.566;2023-08-20T02:30:07;21.80;99.90
22145;DHT22;11238;48.730;11.566;2023-08-20T02:32:34;21.70;99.90
22145;DHT22;11238;48.730;11.566;2023-08-20T02:35:00;21.70;99.90
22145;DHT22;11238;48.730;11.566;2023-08-20T02:37:26;21.80;99.90
22145;DHT22;11238;48.730;11.566;2023-08-20T02:39:52;21.70;99.90
22145;DHT22;11238;48.730;11.566;2023-08-20T02:42:18;21.70;99.90
22145;DHT22;11238;48.730;11.566;2023-08-20T02:44:44;21.70;99.90
22145;DHT22;11238;48.730;11.566;2023-08-20T02:47:10;21.70;99.90
22145;DHT22;11238;48.730;11.566;2023-08-20T02:49:35;21.60;99.90
22145;DHT22;11238;48.730;11.566;2023-08-20T02:52:02;21.70;99.90
22145;DHT22;11238;48.730;11.566;2023-08-20T02:54:50;21.60;99.90
22145;DHT22;11238;48.730;11.566;2023-08-20T02:57:16;21.60;99.90
22145;DHT22;11238;48.730;11.566;2023-08-20T02:59:42;21.50;99.90
22145;DHT22;11238;48.730;11.566;2023-08-20T03:02:08;21.50;99.90
22145;DHT22;11238;48.730;11.566;2023-08-20T03:04:34;21.50;99.90
22145;DHT22;11238;48.730;11.566;2023-08-20T03:07:00;21.50;99.90
22145;DHT22;11238;48.730;11.566;2023-08-20T03:09:26;21.40;99.90
22145;DHT22;11238;48.730;11.566;2023-08-20T03:11:52;21.50;99.90
22145;DHT22;11238;48.730;11.566;2023-08-20T03:14:18;21.50;99.90
22145;DHT22;11238;48.730;11.566;2023-08-20T03:16:44;21.50;99.90
22145;DHT22;11238;48.730;11.566;2023-08-20T03:19:09;21.40;99.90
22145;DHT22;11238;48.730;11.566;2023-08-20T03:21:35;21.40;99.90
22145;DHT22;11238;48.730;11.566;2023-08-20T03:24:02;21.50;99.90
22145;DHT22;11238;48.730;11.566;2023-08-20T03:26:28;21.50;99.90
22145;DHT22;11238;48.730;11.566;2023-08-20T03:28:54;21.50;99.90
22145;DHT22;11238;48.730;11.566;2023-08-20T03:31:20;21.60;99.90
22145;DHT22;11238;48.730;11.566;2023-08-20T03:33:47;21.60;99.90
22145;DHT22;11238;48.730;11.566;2023-08-20T03:36:13;21.60;99.90
22145;DHT22;11238;48.730;11.566;2023-08-20T03:38:39;21.40;99.90
22145;DHT22;11238;48.730;11.566;2023-08-20T03:41:05;21.40;99.90
22145;DHT22;11238;48.730;11.566;2023-08-20T03:43:52;21.40;99.90
22145;DHT22;11238;48.730;11.566;2023-08-20T03:46:18;21.40;99.90
22145;DHT22;11238;48.730;11.566;2023-08-20T03:48:44;21.40;99.90
22145;DHT22;11238;48.730;11.566;2023-08-20T03:51:10;21.50;99.90
22145;DHT22;11238;48.730;11.566;2023-08-20T03:53:36;21.30;99.90
22145;DHT22;11238;48.730;11.566;2023-08-20T03:56:02;21.30;99.90
22145;DHT22;11238;48.730;11.566;2023-08-20T03:58:28;21.40;99.90
22145;DHT22;11238;48.730;11.566;2023-08-20T04:00:54;21.20;99.90
22145;DHT22;11238;48.730;11.566;2023-08-20T04:03:21;21.20;99.90
22145;DHT22;11238;48.730;11.566;2023-08-20T04:06:09;21.30;99.90
22145;DHT22;11238;48.730;11.566;2023-08-20T04:08:36;21.10;99.90
22145;DHT22;11238;48.730;11.566;2023-08-20T04:11:02;21.20;99.90
22145;DHT22;11238;48.730;11.566;2023-08-20T04:13:29;21.20;99.90
22145;DHT22;11238;48.730;11.566;2023-08-20T04:15:56;21.30;99.90
22145;DHT22;11238;48.730;11.566;2023-08-20T04:18:22;21.20;99.90
22145;DHT22;11238;48.730;11.566;2023-08-20T04:20:50;21.40;99.90
22145;DHT22;11238;48.730;11.566;2023-08-20T04:23:16;21.40;99.90
22145;DHT22;11238;48.730;11.566;2023-08-20T04:25:42;21.40;99.90
22145;DHT22;11238;48.730;11.566;2023-08-20T04:28:09;21.40;99.90
22145;DHT22;11238;48.730;11.566;2023-08-20T04:30:56;21.40;99.90
22145;DHT22;11238;48.730;11.566;2023-08-20T04:33:27;21.30;99.90
22145;DHT22;11238;48.730;11.566;2023-08-20T04:35:53;21.20;99.90
22145;DHT22;11238;48.730;11.566;2023-08-20T04:38:19;21.10;99.90
22145;DHT22;11238;48.730;11.566;2023-08-20T04:40:46;21.10;99.90
22145;DHT22;11238;48.730;11.566;2023-08-20T04:43:13;21.10;99.90
22145;DHT22;11238;48.730;11.566;2023-08-20T04:45:39;21.10;99.90
22145;DHT22;11238;48.730;11.566;2023-08-20T04:48:05;21.10;99.90
22145;DHT22;11238;48.730;11.566;2023-08-20T04:50:31;21.10;99.90
22145;DHT22;11238;48.730;11.566;2023-08-20T04:52:57;21.10;99.90
22145;DHT22;11238;48.730;11.566;2023-08-20T04:55:27;21.10;99.90
22145;DHT22;11238;48.730;11.566;2023-08-20T04:57:54;21.10;99.90
22145;DHT22;11238;48.730;11.566;2023-08-20T05:00:21;21.10;99.90
22145;DHT22;11238;48.730;11.566;2023-08-20T05:02:54;21.10;99.90
22145;DHT22;11238;48.730;11.566;2023-08-20T05:05:22;21.10;99.90
22145;DHT22;11238;48.730;11.566;2023-08-20T05:07:49;21.10;99.90
22145;DHT22;11238;48.730;11.566;2023-08-20T05:10:14;21.00;99.90
22145;DHT22;11238;48.730;11.566;2023-08-20T05:13:03;21.10;99.90
22145;DHT22;11238;48.730;11.566;2023-08-20T05:15:30;21.10;99.90
22145;DHT22;11238;48.730;11.566;2023-08-20T05:18:00;21.20;99.90
22145;DHT22;11238;48.730;11.566;2023-08-20T05:20:27;21.20;99.90
22145;DHT22;11238;48.730;11.566;2023-08-20T05:22:54;21.20;99.90
22145;DHT22;11238;48.730;11.566;2023-08-20T05:25:20;21.30;99.90
22145;DHT22;11238;48.730;11.566;2023-08-20T05:27:48;21.40;99.90
22145;DHT22;11238;48.730;11.566;2023-08-20T05:30:13;21.50;99.90
22145;DHT22;11238;48.730;11.566;2023-08-20T05:32:40;21.50;99.90
22145;DHT22;11238;48.730;11.566;2023-08-20T05:35:06;21.60;99.90
22145;DHT22;11238;48.730;11.566;2023-08-20T05:37:32;21.60;99.90
22145;DHT22;11238;48.730;11.566;2023-08-20T05:39:58;21.60;99.90
22145;DHT22;11238;48.730;11.566;2023-08-20T05:42:24;21.60;99.90
22145;DHT22;11238;48.730;11.566;2023-08-20T05:44:55;21.70;99.90
22145;DHT22;11238;48.730;11.566;2023-08-20T05:47:25;21.90;99.90
22145;DHT22;11238;48.730;11.566;2023-08-20T05:49:51;22.00;99.90
22145;DHT22;11238;48.730;11.566;2023-08-20T05:52:20;22.10;99.90
22145;DHT22;11238;48.730;11.566;2023-08-20T05:54:47;22.20;99.90
22145;DHT22;11238;48.730;11.566;2023-08-20T05:57:13;22.20;99.90
22145;DHT22;11238;48.730;11.566;2023-08-20T05:59:40;22.30;99.90
22145;DHT22;11238;48.730;11.566;2023-08-20T06:02:08;22.30;99.90
22145;DHT22;11238;48.730;11.566;2023-08-20T06:04:35;22.40;99.90
22145;DHT22;11238;48.730;11.566;2023-08-20T06:07:00;22.40;99.90
22145;DHT22;11238;48.730;11.566;2023-08-20T06:09:26;22.50;99.90
22145;DHT22;11238;48.730;11.566;2023-08-20T06:11:52;22.60;99.90
22145;DHT22;11238;48.730;11.566;2023-08-20T06:14:18;22.60;99.90
22145;DHT22;11238;48.730;11.566;2023-08-20T06:16:44;22.70;99.90
22145;DHT22;11238;48.730;11.566;2023-08-20T06:19:10;22.70;99.90
22145;DHT22;11238;48.730;11.566;2023-08-20T06:21:35;22.80;99.90
22145;DHT22;11238;48.730;11.566;2023-08-20T06:24:01;22.70;99.90
22145;DHT22;11238;48.730;11.566;2023-08-20T06:26:27;22.70;99.90
22145;DHT22;11238;48.730;11.566;2023-08-20T06:28:52;22.80;99.90
22145;DHT22;11238;48.730;11.566;2023-08-20T06:31:18;22.80;99.90
22145;DHT22;11238;48.730;11.566;2023-08-20T06:33:46;22.80;99.90
22145;DHT22;11238;48.730;11.566;2023-08-20T06:36:12;22.80;99.90
22145;DHT22;11238;48.730;11.566;2023-08-20T06:38:38;22.90;99.90
22145;DHT22;11238;48.730;11.566;2023-08-20T06:41:04;23.00;99.90
22145;DHT22;11238;48.730;11.566;2023-08-20T06:43:30;23.00;99.90
22145;DHT22;11238;48.730;11.566;2023-08-20T06:45:55;23.10;99.90
22145;DHT22;11238;48.730;11.566;2023-08-20T06:48:22;23.20;99.90
22145;DHT22;11238;48.730;11.566;2023-08-20T06:50:50;23.30;99.90
22145;DHT22;11238;48.730;11.566;2023-08-20T06:53:15;23.30;99.90
22145;DHT22;11238;48.730;11.566;2023-08-20T06:55:41;23.40;99.90
22145;DHT22;11238;48.730;11.566;2023-08-20T06:58:07;23.40;99.90
22145;DHT22;11238;48.730;11.566;2023-08-20T07:00:34;23.50;99.90
22145;DHT22;11238;48.730;11.566;2023-08-20T07:03:00;23.60;99.90
22145;DHT22;11238;48.730;11.566;2023-08-20T07:05:25;23.70;99.90
22145;DHT22;11238;48.730;11.566;2023-08-20T07:07:52;23.70;99.90
22145;DHT22;11238;48.730;11.566;2023-08-20T07:10:17;23.80;99.90
22145;DHT22;11238;48.730;11.566;2023-08-20T07:12:43;23.90;99.90
22145;DHT22;11238;48.730;11.566;2023-08-20T07:15:10;23.90;99.90
22145;DHT22;11238;48.730;11.566;2023-08-20T07:17:36;24.00;99.90
22145;DHT22;11238;48.730;11.566;2023-08-20T07:20:01;24.10;99.90
22145;DHT22;11238;48.730;11.566;2023-08-20T07:22:28;24.10;99.90
22145;DHT22;11238;48.730;11.566;2023-08-20T07:24:54;24.30;99.90
22145;DHT22;11238;48.730;11.566;2023-08-20T07:27:20;24.40;99.90
22145;DHT22;11238;48.730;11.566;2023-08-20T07:29:46;24.60;99.90
22145;DHT22;11238;48.730;11.566;2023-08-20T07:32:12;24.60;99.90
22145;DHT22;11238;48.730;11.566;2023-08-20T07:34:38;24.70;99.90
22145;DHT22;11238;48.730;11.566;2023-08-20T07:37:04;24.80;99.90
22145;DHT22;11238;48.730;11.566;2023-08-20T07:39:30;24.90;99.90
22145;DHT22;11238;48.730;11.566;2023-08-20T07:41:56;25.00;99.90
22145;DHT22;11238;48.730;11.566;2023-08-20T07:44:22;25.00;99.90
22145;DHT22;11238;48.730;11.566;2023-08-20T07:46:48;25.20;99.90
22145;DHT22;11238;48.730;11.566;2023-08-20T07:49:14;25.20;99.90
22145;DHT22;11238;48.730;11.566;2023-08-20T07:51:40;25.30;99.90
22145;DHT22;11238;48.730;11.566;2023-08-20T07:54:06;25.40;99.90
22145;DHT22;11238;48.730;11.566;2023-08-20T07:56:32;25.50;99.90
22145;DHT22;11238;48.730;11.566;2023-08-20T07:58:58;25.60;99.90
22145;DHT22;11238;48.730;11.566;2023-08-20T08:01:24;25.70;99.90
22145;DHT22;11238;48.730;11.566;2023-08-20T08:03:50;25.70;99.90
22145;DHT22;11238;48.730;11.566;2023-08-20T08:06:17;25.80;99.90
22145;DHT22;11238;48.730;11.566;2023-08-20T08:08:43;26.00;99.90
22145;DHT22;11238;48.730;11.566;2023-08-20T08:11:10;26.00;99.90
22145;DHT22;11238;48.730;11.566;2023-08-20T08:13:35;26.20;99.90
22145;DHT22;11238;48.730;11.566;2023-08-20T08:16:02;26.30;99.90
22145;DHT22;11238;48.730;11.566;2023-08-20T08:18:27;26.40;99.90
22145;DHT22;11238;48.730;11.566;2023-08-20T08:20:53;26.70;99.90
22145;DHT22;11238;48.730;11.566;2023-08-20T08:23:19;26.70;99.70
22145;DHT22;11238;48.730;11.566;2023-08-20T08:25:45;26.80;99.10
22145;DHT22;11238;48.730;11.566;2023-08-20T08:28:11;26.90;99.90
22145;DHT22;11238;48.730;11.566;2023-08-20T08:30:37;27.00;99.90
22145;DHT22;11238;48.730;11.566;2023-08-20T08:33:04;27.00;99.90
22145;DHT22;11238;48.730;11.566;2023-08-20T08:35:30;27.10;99.90
22145;DHT22;11238;48.730;11.566;2023-08-20T08:37:56;27.20;99.90
22145;DHT22;11238;48.730;11.566;2023-08-20T08:40:24;27.30;99.90
22145;DHT22;11238;48.730;11.566;2023-08-20T08:42:54;27.40;99.90
22145;DHT22;11238;48.730;11.566;2023-08-20T08:45:20;27.50;99.90
22145;DHT22;11238;48.730;11.566;2023-08-20T08:47:46;27.60;98.30
22145;DHT22;11238;48.730;11.566;2023-08-20T08:50:13;27.70;99.10
22145;DHT22;11238;48.730;11.566;2023-08-20T08:52:41;27.80;99.70
22145;DHT22;11238;48.730;11.566;2023-08-20T08:55:07;27.90;99.90
22145;DHT22;11238;48.730;11.566;2023-08-20T08:57:37;28.00;99.20
22145;DHT22;11238;48.730;11.566;2023-08-20T09:00:03;28.10;97.10
22145;DHT22;11238;48.730;11.566;2023-08-20T09:02:29;28.20;98.00
22145;DHT22;11238;48.730;11.566;2023-08-20T09:04:56;28.30;97.50
22145;DHT22;11238;48.730;11.566;2023-08-20T09:07:22;28.40;97.00
22145;DHT22;11238;48.730;11.566;2023-08-20T09:09:48;28.50;97.10
22145;DHT22;11238;48.730;11.566;2023-08-20T09:12:21;28.50;94.60
22145;DHT22;11238;48.730;11.566;2023-08-20T09:14:49;28.60;95.40
22145;DHT22;11238;48.730;11.566;2023-08-20T09:17:15;28.70;93.70
22145;DHT22;11238;48.730;11.566;2023-08-20T09:19:43;28.90;94.30
22145;DHT22;11238;48.730;11.566;2023-08-20T09:22:14;29.00;93.70
22145;DHT22;11238;48.730;11.566;2023-08-20T09:24:52;29.10;92.60
22145;DHT22;11238;48.730;11.566;2023-08-20T09:27:18;29.20;93.50
22145;DHT22;11238;48.730;11.566;2023-08-20T09:29:53;29.40;92.70
22145;DHT22;11238;48.730;11.566;2023-08-20T09:32:24;29.40;91.10
22145;DHT22;11238;48.730;11.566;2023-08-20T09:34:52;29.40;84.80
22145;DHT22;11238;48.730;11.566;2023-08-20T09:37:19;29.40;87.00
22145;DHT22;11238;48.730;11.566;2023-08-20T09:39:46;29.50;88.20
22145;DHT22;11238;48.730;11.566;2023-08-20T09:42:13;29.60;88.50
22145;DHT22;11238;48.730;11.566;2023-08-20T09:44:40;29.60;88.60
22145;DHT22;11238;48.730;11.566;2023-08-20T09:47:11;29.80;89.00
22145;DHT22;11238;48.730;11.566;2023-08-20T09:49:43;29.80;81.40
22145;DHT22;11238;48.730;11.566;2023-08-20T09:52:16;29.90;82.70
22145;DHT22;11238;48.730;11.566;2023-08-20T09:57:37;30.20;86.40
22145;DHT22;11238;48.730;11.566;2023-08-20T10:00:09;30.40;84.90
22145;DHT22;11238;48.730;11.566;2023-08-20T10:02:42;30.50;86.00
22145;DHT22;11238;48.730;11.566;2023-08-20T10:05:09;30.60;86.50
22145;DHT22;11238;48.730;11.566;2023-08-20T10:07:36;30.80;85.50
22145;DHT22;11238;48.730;11.566;2023-08-20T10:10:12;30.80;77.60
22145;DHT22;11238;48.730;11.566;2023-08-20T10:12:40;30.80;77.50
22145;DHT22;11238;48.730;11.566;2023-08-20T10:15:08;30.80;77.40
22145;DHT22;11238;48.730;11.566;2023-08-20T10:17:35;30.80;77.60
22145;DHT22;11238;48.730;11.566;2023-08-20T10:20:04;30.90;76.60
22145;DHT22;11238;48.730;11.566;2023-08-20T10:22:53;30.90;75.70
22145;DHT22;11238;48.730;11.566;2023-08-20T10:25:24;31.10;77.60
22145;DHT22;11238;48.730;11.566;2023-08-20T10:27:51;31.40;80.80
22145;DHT22;11238;48.730;11.566;2023-08-20T10:30:18;31.60;81.20
22145;DHT22;11238;48.730;11.566;2023-08-20T10:32:54;31.90;82.30
22145;DHT22;11238;48.730;11.566;2023-08-20T10:35:46;31.70;73.30
22145;DHT22;11238;48.730;11.566;2023-08-20T10:38:13;31.90;77.30
22145;DHT22;11238;48.730;11.566;2023-08-20T10:40:56;32.00;70.00
22145;DHT22;11238;48.730;11.566;2023-08-20T10:43:39;31.50;69.20
22145;DHT22;11238;48.730;11.566;2023-08-20T10:46:16;31.90;71.00
22145;DHT22;11238;48.730;11.566;2023-08-20T10:48:50;32.10;74.60
22145;DHT22;11238;48.730;11.566;2023-08-20T10:51:24;32.30;70.00
22145;DHT22;11238;48.730;11.566;2023-08-20T10:54:06;32.00;70.20
22145;DHT22;11238;48.730;11.566;2023-08-20T10:59:17;32.30;64.10
22145;DHT22;11238;48.730;11.566;2023-08-20T11:02:10;32.50;70.30
22145;DHT22;11238;48.730;11.566;2023-08-20T11:04:39;32.70;71.00
22145;DHT22;11238;48.730;11.566;2023-08-20T11:07:06;32.90;70.20
22145;DHT22;11238;48.730;11.566;2023-08-20T11:09:31;32.90;68.60
22145;DHT22;11238;48.730;11.566;2023-08-20T11:11:58;33.00;65.50
22145;DHT22;11238;48.730;11.566;2023-08-20T11:14:24;32.40;63.70
22145;DHT22;11238;48.730;11.566;2023-08-20T11:16:50;32.70;64.10
22145;DHT22;11238;48.730;11.566;2023-08-20T11:19:21;33.10;67.60
22145;DHT22;11238;48.730;11.566;2023-08-20T11:21:48;33.40;69.80
22145;DHT22;11238;48.730;11.566;2023-08-20T11:24:13;33.70;71.90
22145;DHT22;11238;48.730;11.566;2023-08-20T11:26:59;33.80;67.80
22145;DHT22;11238;48.730;11.566;2023-08-20T11:29:26;33.50;60.60
22145;DHT22;11238;48.730;11.566;2023-08-20T11:31:52;33.70;62.60
22145;DHT22;11238;48.730;11.566;2023-08-20T11:34:19;33.30;60.10
22145;DHT22;11238;48.730;11.566;2023-08-20T11:36:45;33.50;64.00
22145;DHT22;11238;48.730;11.566;2023-08-20T11:39:13;33.60;60.20
22145;DHT22;11238;48.730;11.566;2023-08-20T11:41:40;34.00;59.40
22145;DHT22;11238;48.730;11.566;2023-08-20T11:44:08;34.10;58.10
22145;DHT22;11238;48.730;11.566;2023-08-20T11:46:42;34.10;58.50
22145;DHT22;11238;48.730;11.566;2023-08-20T11:49:10;33.90;58.70
22145;DHT22;11238;48.730;11.566;2023-08-20T11:51:38;34.00;56.20
22145;DHT22;11238;48.730;11.566;2023-08-20T11:54:05;34.30;56.60
22145;DHT22;11238;48.730;11.566;2023-08-20T11:56:33;34.30;57.00
22145;DHT22;11238;48.730;11.566;2023-08-20T11:59:00;34.30;57.60
22145;DHT22;11238;48.730;11.566;2023-08-20T12:01:29;34.60;56.80
22145;DHT22;11238;48.730;11.566;2023-08-20T12:04:00;34.60;56.80
22145;DHT22;11238;48.730;11.566;2023-08-20T12:06:26;34.60;56.00
22145;DHT22;11238;48.730;11.566;2023-08-20T12:08:58;34.80;57.50
22145;DHT22;11238;48.730;11.566;2023-08-20T12:11:28;34.80;56.10
22145;DHT22;11238;48.730;11.566;2023-08-20T12:14:17;35.10;55.50
22145;DHT22;11238;48.730;11.566;2023-08-20T12:16:44;35.30;54.40
22145;DHT22;11238;48.730;11.566;2023-08-20T12:19:10;35.50;54.70
22145;DHT22;11238;48.730;11.566;2023-08-20T12:21:36;35.20;55.70
22145;DHT22;11238;48.730;11.566;2023-08-20T12:24:02;35.60;57.70
22145;DHT22;11238;48.730;11.566;2023-08-20T12:26:29;35.10;56.00
22145;DHT22;11238;48.730;11.566;2023-08-20T12:29:17;35.00;55.50
22145;DHT22;11238;48.730;11.566;2023-08-20T12:31:43;35.40;56.40
22145;DHT22;11238;48.730;11.566;2023-08-20T12:34:09;35.60;54.80
22145;DHT22;11238;48.730;11.566;2023-08-20T12:36:35;35.60;54.10
22145;DHT22;11238;48.730;11.566;2023-08-20T12:39:02;35.40;55.50
22145;DHT22;11238;48.730;11.566;2023-08-20T12:41:29;35.60;55.00
22145;DHT22;11238;48.730;11.566;2023-08-20T12:43:55;35.90;55.30
22145;DHT22;11238;48.730;11.566;2023-08-20T12:46:43;36.00;53.00
22145;DHT22;11238;48.730;11.566;2023-08-20T12:49:09;36.00;56.20
22145;DHT22;11238;48.730;11.566;2023-08-20T12:51:35;36.20;55.00
22145;DHT22;11238;48.730;11.566;2023-08-20T12:54:01;35.80;51.60
22145;DHT22;11238;48.730;11.566;2023-08-20T12:56:27;36.10;53.30
22145;DHT22;11238;48.730;11.566;2023-08-20T12:58:53;36.20;50.50
22145;DHT22;11238;48.730;11.566;2023-08-20T13:01:19;36.40;52.60
22145;DHT22;11238;48.730;11.566;2023-08-20T13:03:45;36.10;50.70
22145;DHT22;11238;48.730;11.566;2023-08-20T13:06:11;35.40;50.50
22145;DHT22;11238;48.730;11.566;2023-08-20T13:08:37;35.00;51.50
22145;DHT22;11238;48.730;11.566;2023-08-20T13:11:06;35.60;52.00
22145;DHT22;11238;48.730;11.566;2023-08-20T13:13:32;35.50;50.80
22145;DHT22;11238;48.730;11.566;2023-08-20T13:16:00;35.60;50.60
22145;DHT22;11238;48.730;11.566;2023-08-20T13:18:27;35.50;50.20
22145;DHT22;11238;48.730;11.566;2023-08-20T13:20:53;35.90;50.70
22145;DHT22;11238;48.730;11.566;2023-08-20T13:23:19;35.40;49.70
22145;DHT22;11238;48.730;11.566;2023-08-20T13:25:45;35.90;54.30
22145;DHT22;11238;48.730;11.566;2023-08-20T13:28:12;36.20;49.80
22145;DHT22;11238;48.730;11.566;2023-08-20T13:30:37;36.50;50.40
22145;DHT22;11238;48.730;11.566;2023-08-20T13:33:04;36.80;51.60
22145;DHT22;11238;48.730;11.566;2023-08-20T13:35:29;36.40;47.50
22145;DHT22;11238;48.730;11.566;2023-08-20T13:37:55;36.30;47.10
22145;DHT22;11238;48.730;11.566;2023-08-20T13:40:21;36.40;50.00
22145;DHT22;11238;48.730;11.566;2023-08-20T13:42:47;36.70;49.50
22145;DHT22;11238;48.730;11.566;2023-08-20T13:45:13;36.80;48.10
22145;DHT22;11238;48.730;11.566;2023-08-20T13:47:39;37.00;47.50
22145;DHT22;11238;48.730;11.566;2023-08-20T13:50:06;36.00;45.20
22145;DHT22;11238;48.730;11.566;2023-08-20T13:52:32;36.60;46.20
22145;DHT22;11238;48.730;11.566;2023-08-20T13:54:57;36.80;49.30
22145;DHT22;11238;48.730;11.566;2023-08-20T13:57:23;37.10;47.50
22145;DHT22;11238;48.730;11.566;2023-08-20T13:59:49;36.70;47.00
22145;DHT22;11238;48.730;11.566;2023-08-20T14:02:15;36.70;47.20
22145;DHT22;11238;48.730;11.566;2023-08-20T14:04:41;36.70;46.90
22145;DHT22;11238;48.730;11.566;2023-08-20T14:07:07;36.60;46.40
22145;DHT22;11238;48.730;11.566;2023-08-20T14:09:33;36.80;48.40
22145;DHT22;11238;48.730;11.566;2023-08-20T14:12:00;37.00;48.30
22145;DHT22;11238;48.730;11.566;2023-08-20T14:14:26;36.80;45.10
22145;DHT22;11238;48.730;11.566;2023-08-20T14:16:52;37.10;47.10
22145;DHT22;11238;48.730;11.566;2023-08-20T14:19:18;37.30;45.90
22145;DHT22;11238;48.730;11.566;2023-08-20T14:21:44;37.20;47.70
22145;DHT22;11238;48.730;11.566;2023-08-20T14:24:10;37.30;47.90
22145;DHT22;11238;48.730;11.566;2023-08-20T14:26:35;36.40;44.60
22145;DHT22;11238;48.730;11.566;2023-08-20T14:29:01;36.20;46.00
22145;DHT22;11238;48.730;11.566;2023-08-20T14:31:27;36.40;45.80
22145;DHT22;11238;48.730;11.566;2023-08-20T14:33:54;36.70;46.20
22145;DHT22;11238;48.730;11.566;2023-08-20T14:36:20;37.10;48.00
22145;DHT22;11238;48.730;11.566;2023-08-20T14:38:45;35.80;43.30
22145;DHT22;11238;48.730;11.566;2023-08-20T14:41:11;35.90;45.90
22145;DHT22;11238;48.730;11.566;2023-08-20T14:43:37;36.30;47.50
22145;DHT22;11238;48.730;11.566;2023-08-20T14:46:03;36.20;45.60
22145;DHT22;11238;48.730;11.566;2023-08-20T14:48:29;36.20;46.20
22145;DHT22;11238;48.730;11.566;2023-08-20T14:50:55;36.20;45.40
22145;DHT22;11238;48.730;11.566;2023-08-20T14:53:21;36.00;46.10
22145;DHT22;11238;48.730;11.566;2023-08-20T14:55:47;36.40;48.10
22145;DHT22;11238;48.730;11.566;2023-08-20T14:58:13;36.80;47.00
22145;DHT22;11238;48.730;11.566;2023-08-20T15:00:39;36.60;46.90
22145;DHT22;11238;48.730;11.566;2023-08-20T15:03:05;36.90;46.60
22145;DHT22;11238;48.730;11.566;2023-08-20T15:05:32;36.80;46.00
22145;DHT22;11238;48.730;11.566;2023-08-20T15:07:58;36.90;46.10
22145;DHT22;11238;48.730;11.566;2023-08-20T15:10:24;36.80;45.40
22145;DHT22;11238;48.730;11.566;2023-08-20T15:12:50;36.80;43.70
22145;DHT22;11238;48.730;11.566;2023-08-20T15:15:16;36.70;45.70
22145;DHT22;11238;48.730;11.566;2023-08-20T15:17:42;36.50;44.80
22145;DHT22;11238;48.730;11.566;2023-08-20T15:20:08;36.50;44.30
22145;DHT22;11238;48.730;11.566;2023-08-20T15:22:37;36.60;45.40
22145;DHT22;11238;48.730;11.566;2023-08-20T15:25:03;36.70;45.40
22145;DHT22;11238;48.730;11.566;2023-08-20T15:27:30;36.70;45.00
22145;DHT22;11238;48.730;11.566;2023-08-20T15:29:56;36.80;46.60